sensor_id;sensor_type;location;lat;lon;timestamp;temperature;humidity
9699;DHT22;10089;47.876;8.346;2023-05-13T00:00:10;8.50;99.90
9699;DHT22;10089;47.876;8.346;2023-05-13T00:02:36;8.50;99.90
9699;DHT22;10089;47.876;8.346;2023-05-13T00:05:02;8.50;99.90
9699;DHT22;10089;47.876;8.346;2023-05-13T00:07:27;8.40;99.90
9699;DHT22;10089;47.876;8.346;2023-05-13T00:09:53;8.40;99.90
9699;DHT22;10089;47.876;8.346;2023-05-13T00:12:19;8.50;99.90
9699;DHT22;10089;47.876;8.346;2023-05-13T00:14:44;8.40;99.90
9699;DHT22;10089;47.876;8.346;2023-05-13T00:17:10;8.30;99.90
9699;DHT22;10089;47.876;8.346;2023-05-13T00:19:36;8.40;99.90
9699;DHT22;10089;47.876;8.346;2023-05-13T00:22:01;8.30;99.90
9699;DHT22;10089;47.876;8.346;2023-05-13T00:24:27;8.30;99.90
9699;DHT22;10089;47.876;8.346;2023-05-13T00:26:53;8.30;99.90
9699;DHT22;10089;47.876;8.346;2023-05-13T00:29:18;8.30;99.90
9699;DHT22;10089;47.876;8.346;2023-05-13T00:31:44;8.30;99.90
9699;DHT22;10089;47.876;8.346;2023-05-13T00:34:10;8.30;99.90
9699;DHT22;10089;47.876;8.346;2023-05-13T00:36:36;8.30;99.90
9699;DHT22;10089;47.876;8.346;2023-05-13T00:39:02;8.30;99.90
9699;DHT22;10089;47.876;8.346;2023-05-13T00:41:28;8.20;99.90
9699;DHT22;10089;47.876;8.346;2023-05-13T00:43:54;8.30;99.90
9699;DHT22;10089;47.876;8.346;2023-05-13T00:46:23;8.30;99.90
9699;DHT22;10089;47.876;8.346;2023-05-13T00:48:49;8.30;99.90
9699;DHT22;10089;47.876;8.346;2023-05-13T00:51:15;8.30;99.90
9699;DHT22;10089;47.876;8.346;2023-05-13T00:53:41;8.40;99.90
9699;DHT22;10089;47.876;8.346;2023-05-13T00:56:07;8.40;99.90
9699;DHT22;10089;47.876;8.346;2023-05-13T00:58:33;8.40;99.90
9699;DHT22;10089;47.876;8.346;2023-05-13T01:09:48;8.60;99.90
9699;DHT22;10089;47.876;8.346;2023-05-13T01:12:35;8.60;99.90
9699;DHT22;10089;47.876;8.346;2023-05-13T01:15:14;8.60;99.90
9699;DHT22;10089;47.876;8.346;2023-05-13T01:17:59;8.70;99.90
9699;DHT22;10089;47.876;8.346;2023-05-13T01:20:27;8.70;99.90
9699;DHT22;10089;47.876;8.346;2023-05-13T01:22:54;8.70;99.90
9699;DHT22;10089;47.876;8.346;2023-05-13T01:25:22;8.70;99.90
9699;DHT22;10089;47.876;8.346;2023-05-13T01:27:48;8.70;99.90
9699;DHT22;10089;47.876;8.346;2023-05-13T01:30:14;8.70;99.90
9699;DHT22;10089;47.876;8.346;2023-05-13T01:32:39;8.70;99.90
9699;DHT22;10089;47.876;8.346;2023-05-13T01:35:06;8.80;99.90
9699;DHT22;10089;47.876;8.346;2023-05-13T01:37:34;8.70;99.90
9699;DHT22;10089;47.876;8.346;2023-05-13T01:40:00;8.70;99.90
9699;DHT22;10089;47.876;8.346;2023-05-13T01:42:28;8.70;99.90
9699;DHT22;10089;47.876;8.346;2023-05-13T01:44:54;8.70;99.90
9699;DHT22;10089;47.876;8.346;2023-05-13T01:47:20;8.70;99.90
9699;DHT22;10089;47.876;8.346;2023-05-13T01:49:45;8.70;99.90
9699;DHT22;10089;47.876;8.346;2023-05-13T01:52:11;9.10;99.90
9699;DHT22;10089;47.876;8.346;2023-05-13T01:54:36;8.70;99.90
9699;DHT22;10089;47.876;8.346;2023-05-13T01:57:02;8.60;99.90
9699;DHT22;10089;47.876;8.346;2023-05-13T01:59:28;8.60;99.90
9699;DHT22;10089;47.876;8.346;2023-05-13T02:01:54;8.60;99.90
9699;DHT22;10089;47.876;8.346;2023-05-13T02:04:20;8.60;99.90
9699;DHT22;10089;47.876;8.346;2023-05-13T02:06:46;8.60;99.90
9699;DHT22;10089;47.876;8.346;2023-05-13T02:09:12;8.60;99.90
9699;DHT22;10089;47.876;8.346;2023-05-13T02:11:38;8.60;99.90
9699;DHT22;10089;47.876;8.346;2023-05-13T02:14:04;8.60;99.90
9699;DHT22;10089;47.876;8.346;2023-05-13T02:16:30;8.60;99.90
9699;DHT22;10089;47.876;8.346;2023-05-13T02:18:56;8.70;99.90
9699;DHT22;10089;47.876;8.346;2023-05-13T02:21:21;8.60;99.90
9699;DHT22;10089;47.876;8.346;2023-05-13T02:23:47;8.70;99.90
9699;DHT22;10089;47.876;8.346;2023-05-13T02:26:13;8.70;99.90
9699;DHT22;10089;47.876;8.346;2023-05-13T02:28:38;8.60;99.90
9699;DHT22;10089;47.876;8.346;2023-05-13T02:31:04;8.60;99.90
9699;DHT22;10089;47.876;8.346;2023-05-13T02:33:30;8.70;99.90
9699;DHT22;10089;47.876;8.346;2023-05-13T02:35:55;8.70;99.90
9699;DHT22;10089;47.876;8.346;2023-05-13T02:38:21;8.60;99.90
9699;DHT22;10089;47.876;8.346;2023-05-13T02:40:47;8.70;99.90
9699;DHT22;10089;47.876;8.346;2023-05-13T02:43:12;8.60;99.90
9699;DHT22;10089;47.876;8.346;2023-05-13T02:45:41;8.60;99.90
9699;DHT22;10089;47.876;8.346;2023-05-13T02:48:07;8.50;99.90
9699;DHT22;10089;47.876;8.346;2023-05-13T02:50:32;8.60;99.90
9699;DHT22;10089;47.876;8.346;2023-05-13T02:52:58;8.60;99.90
9699;DHT22;10089;47.876;8.346;2023-05-13T02:55:24;8.60;99.90
9699;DHT22;10089;47.876;8.346;2023-05-13T02:57:50;8.60;99.90
9699;DHT22;10089;47.876;8.346;2023-05-13T03:00:16;8.60;99.90
9699;DHT22;10089;47.876;8.346;2023-05-13T03:02:41;8.60;99.90
9699;DHT22;10089;47.876;8.346;2023-05-13T03:05:08;8.60;99.90
9699;DHT22;10089;47.876;8.346;2023-05-13T03:07:34;8.60;99.90
9699;DHT22;10089;47.876;8.346;2023-05-13T03:09:59;8.60;99.90
9699;DHT22;10089;47.876;8.346;2023-05-13T03:12:25;8.50;99.90
9699;DHT22;10089;47.876;8.346;2023-05-13T03:14:51;8.50;99.90
9699;DHT22;10089;47.876;8.346;2023-05-13T03:17:16;8.60;99.90
9699;DHT22;10089;47.876;8.346;2023-05-13T03:19:42;8.50;99.90
9699;DHT22;10089;47.876;8.346;2023-05-13T03:22:08;8.50;99.90
9699;DHT22;10089;47.876;8.346;2023-05-13T03:24:34;8.50;99.90
9699;DHT22;10089;47.876;8.346;2023-05-13T03:26:59;8.50;99.90
9699;DHT22;10089;47.876;8.346;2023-05-13T03:29:25;8.60;99.90
9699;DHT22;10089;47.876;8.346;2023-05-13T03:31:51;8.50;99.90
9699;DHT22;10089;47.876;8.346;2023-05-13T03:34:17;8.50;99.90
9699;DHT22;10089;47.876;8.346;2023-05-13T03:36:43;8.50;99.90
9699;DHT22;10089;47.876;8.346;2023-05-13T03:39:09;8.50;99.90
9699;DHT22;10089;47.876;8.346;2023-05-13T03:41:35;8.50;99.90
9699;DHT22;10089;47.876;8.346;2023-05-13T03:44:00;8.40;99.90
9699;DHT22;10089;47.876;8.346;2023-05-13T03:46:26;8.50;99.90
9699;DHT22;10089;47.876;8.346;2023-05-13T03:48:52;8.40;99.90
9699;DHT22;10089;47.876;8.346;2023-05-13T03:51:20;8.40;99.90
9699;DHT22;10089;47.876;8.346;2023-05-13T03:53:46;8.40;99.90
9699;DHT22;10089;47.876;8.346;2023-05-13T03:56:12;8.40;99.90
9699;DHT22;10089;47.876;8.346;2023-05-13T03:58:37;8.40;99.90
9699;DHT22;10089;47.876;8.346;2023-05-13T04:01:05;8.40;99.90
9699;DHT22;10089;47.876;8.346;2023-05-13T04:03:31;8.40;99.90
9699;DHT22;10089;47.876;8.346;2023-05-13T04:05:57;8.40;99.90
9699;DHT22;10089;47.876;8.346;2023-05-13T04:08:23;8.40;99.90
9699;DHT22;10089;47.876;8.346;2023-05-13T04:10:48;8.40;99.90
9699;DHT22;10089;47.876;8.346;2023-05-13T04:13:14;8.40;99.90
9699;DHT22;10089;47.876;8.346;2023-05-13T04:15:39;8.40;99.90
9699;DHT22;10089;47.876;8.346;2023-05-13T04:18:05;8.40;99.90
9699;DHT22;10089;47.876;8.346;2023-05-13T04:20:31;8.40;99.90
9699;DHT22;10089;47.876;8.346;2023-05-13T04:22:57;8.40;99.90
9699;DHT22;10089;47.876;8.346;2023-05-13T04:25:23;8.50;99.90
9699;DHT22;10089;47.876;8.346;2023-05-13T04:27:48;8.50;99.90
9699;DHT22;10089;47.876;8.346;2023-05-13T04:30:14;8.50;99.90
9699;DHT22;10089;47.876;8.346;2023-05-13T04:32:40;8.50;99.90
9699;DHT22;10089;47.876;8.346;2023-05-13T04:35:06;8.60;99.90
9699;DHT22;10089;47.876;8.346;2023-05-13T04:37:32;8.60;99.90
9699;DHT22;10089;47.876;8.346;2023-05-13T04:39:58;8.60;99.90
9699;DHT22;10089;47.876;8.346;2023-05-13T04:42:23;8.50;99.90
9699;DHT22;10089;47.876;8.346;2023-05-13T04:44:49;8.50;99.90
9699;DHT22;10089;47.876;8.346;2023-05-13T04:47:15;8.50;99.90
9699;DHT22;10089;47.876;8.346;2023-05-13T04:49:41;8.50;99.90
9699;DHT22;10089;47.876;8.346;2023-05-13T04:52:07;8.50;99.90
9699;DHT22;10089;47.876;8.346;2023-05-13T04:54:33;8.50;99.90
9699;DHT22;10089;47.876;8.346;2023-05-13T04:57:01;8.50;99.90
9699;DHT22;10089;47.876;8.346;2023-05-13T04:59:26;8.50;99.90
9699;DHT22;10089;47.876;8.346;2023-05-13T05:01:52;8.50;99.90
9699;DHT22;10089;47.876;8.346;2023-05-13T05:04:19;8.60;99.90
9699;DHT22;10089;47.876;8.346;2023-05-13T05:06:45;8.50;99.90
9699;DHT22;10089;47.876;8.346;2023-05-13T05:09:10;8.50;99.90
9699;DHT22;10089;47.876;8.346;2023-05-13T05:11:37;8.50;99.90
9699;DHT22;10089;47.876;8.346;2023-05-13T05:14:03;8.50;99.90
9699;DHT22;10089;47.876;8.346;2023-05-13T05:16:28;8.40;99.90
9699;DHT22;10089;47.876;8.346;2023-05-13T05:18:54;8.50;99.90
9699;DHT22;10089;47.876;8.346;2023-05-13T05:21:20;8.50;99.90
9699;DHT22;10089;47.876;8.346;2023-05-13T05:23:46;8.40;99.90
9699;DHT22;10089;47.876;8.346;2023-05-13T05:26:11;8.40;99.90
9699;DHT22;10089;47.876;8.346;2023-05-13T05:28:37;8.30;99.90
9699;DHT22;10089;47.876;8.346;2023-05-13T05:31:04;8.30;99.90
9699;DHT22;10089;47.876;8.346;2023-05-13T05:33:30;8.30;99.90
9699;DHT22;10089;47.876;8.346;2023-05-13T05:35:56;8.20;99.90
9699;DHT22;10089;47.876;8.346;2023-05-13T05:38:22;8.30;99.90
9699;DHT22;10089;47.876;8.346;2023-05-13T05:40:50;8.30;99.90
9699;DHT22;10089;47.876;8.346;2023-05-13T05:43:15;8.40;99.90
9699;DHT22;10089;47.876;8.346;2023-05-13T05:45:44;8.40;99.90
9699;DHT22;10089;47.876;8.346;2023-05-13T05:48:10;8.30;99.90
9699;DHT22;10089;47.876;8.346;2023-05-13T05:50:35;8.40;99.90
9699;DHT22;10089;47.876;8.346;2023-05-13T05:53:02;8.40;99.90
9699;DHT22;10089;47.876;8.346;2023-05-13T05:55:27;8.40;99.90
9699;DHT22;10089;47.876;8.346;2023-05-13T05:57:57;8.40;99.90
9699;DHT22;10089;47.876;8.346;2023-05-13T06:00:23;8.40;99.90
9699;DHT22;10089;47.876;8.346;2023-05-13T06:02:49;8.50;99.90
9699;DHT22;10089;47.876;8.346;2023-05-13T06:05:15;8.50;99.90
9699;DHT22;10089;47.876;8.346;2023-05-13T06:07:41;8.50;99.90
9699;DHT22;10089;47.876;8.346;2023-05-13T06:10:07;8.50;99.90
9699;DHT22;10089;47.876;8.346;2023-05-13T06:12:32;8.50;99.90
9699;DHT22;10089;47.876;8.346;2023-05-13T06:14:59;8.40;99.90
9699;DHT22;10089;47.876;8.346;2023-05-13T06:17:25;8.40;99.90
9699;DHT22;10089;47.876;8.346;2023-05-13T06:19:50;8.40;99.90
9699;DHT22;10089;47.876;8.346;2023-05-13T06:22:16;8.40;99.90
9699;DHT22;10089;47.876;8.346;2023-05-13T06:24:42;8.40;99.90
9699;DHT22;10089;47.876;8.346;2023-05-13T06:27:12;8.40;99.90
9699;DHT22;10089;47.876;8.346;2023-05-13T06:29:38;8.40;99.90
9699;DHT22;10089;47.876;8.346;2023-05-13T06:32:35;8.40;99.90
9699;DHT22;10089;47.876;8.346;2023-05-13T06:35:01;8.40;99.90
9699;DHT22;10089;47.876;8.346;2023-05-13T06:37:27;8.40;99.90
9699;DHT22;10089;47.876;8.346;2023-05-13T06:39:52;8.40;99.90
9699;DHT22;10089;47.876;8.346;2023-05-13T06:42:18;8.40;99.90
9699;DHT22;10089;47.876;8.346;2023-05-13T06:44:44;8.40;99.90
9699;DHT22;10089;47.876;8.346;2023-05-13T06:47:09;8.40;99.90
9699;DHT22;10089;47.876;8.346;2023-05-13T06:49:40;8.50;99.90
9699;DHT22;10089;47.876;8.346;2023-05-13T06:52:07;8.40;99.90
9699;DHT22;10089;47.876;8.346;2023-05-13T06:54:33;8.50;99.90
9699;DHT22;10089;47.876;8.346;2023-05-13T06:56:58;8.40;99.90
9699;DHT22;10089;47.876;8.346;2023-05-13T06:59:24;8.50;99.90
9699;DHT22;10089;47.876;8.346;2023-05-13T07:01:50;8.60;99.90
9699;DHT22;10089;47.876;8.346;2023-05-13T07:04:15;8.60;99.90
9699;DHT22;10089;47.876;8.346;2023-05-13T07:06:41;8.60;99.90
9699;DHT22;10089;47.876;8.346;2023-05-13T07:09:07;8.70;99.90
9699;DHT22;10089;47.876;8.346;2023-05-13T07:11:35;8.70;99.90
9699;DHT22;10089;47.876;8.346;2023-05-13T07:14:01;8.80;99.90
9699;DHT22;10089;47.876;8.346;2023-05-13T07:16:27;8.70;99.90
9699;DHT22;10089;47.876;8.346;2023-05-13T07:18:52;8.80;99.90
9699;DHT22;10089;47.876;8.346;2023-05-13T07:21:19;8.90;99.90
9699;DHT22;10089;47.876;8.346;2023-05-13T07:23:45;9.00;99.90
9699;DHT22;10089;47.876;8.346;2023-05-13T07:26:10;9.20;99.90
9699;DHT22;10089;47.876;8.346;2023-05-13T07:28:36;9.30;99.90
9699;DHT22;10089;47.876;8.346;2023-05-13T07:31:03;9.40;99.90
9699;DHT22;10089;47.876;8.346;2023-05-13T07:33:29;9.40;99.90
9699;DHT22;10089;47.876;8.346;2023-05-13T07:35:56;9.50;99.90
9699;DHT22;10089;47.876;8.346;2023-05-13T07:38:22;9.60;99.90
9699;DHT22;10089;47.876;8.346;2023-05-13T07:40:48;9.70;99.90
9699;DHT22;10089;47.876;8.346;2023-05-13T07:43:14;9.70;99.90
9699;DHT22;10089;47.876;8.346;2023-05-13T07:45:42;9.50;99.90
9699;DHT22;10089;47.876;8.346;2023-05-13T07:48:08;9.50;99.90
9699;DHT22;10089;47.876;8.346;2023-05-13T07:50:34;9.50;99.90
9699;DHT22;10089;47.876;8.346;2023-05-13T07:53:01;9.60;99.90
9699;DHT22;10089;47.876;8.346;2023-05-13T07:55:27;9.80;99.90
9699;DHT22;10089;47.876;8.346;2023-05-13T07:57:53;9.80;99.90
9699;DHT22;10089;47.876;8.346;2023-05-13T08:00:18;10.00;99.90
9699;DHT22;10089;47.876;8.346;2023-05-13T08:02:44;9.90;99.90
9699;DHT22;10089;47.876;8.346;2023-05-13T08:05:10;10.00;99.90
9699;DHT22;10089;47.876;8.346;2023-05-13T08:07:36;10.00;99.90
9699;DHT22;10089;47.876;8.346;2023-05-13T08:10:02;9.90;99.90
9699;DHT22;10089;47.876;8.346;2023-05-13T08:12:28;9.80;99.90
9699;DHT22;10089;47.876;8.346;2023-05-13T08:14:54;9.90;99.90
9699;DHT22;10089;47.876;8.346;2023-05-13T08:17:19;10.00;99.90
9699;DHT22;10089;47.876;8.346;2023-05-13T08:19:45;10.10;99.90
9699;DHT22;10089;47.876;8.346;2023-05-13T08:22:11;10.00;99.90
9699;DHT22;10089;47.876;8.346;2023-05-13T08:24:36;10.10;99.90
9699;DHT22;10089;47.876;8.346;2023-05-13T08:27:04;10.10;99.90
9699;DHT22;10089;47.876;8.346;2023-05-13T08:29:30;10.00;99.90
9699;DHT22;10089;47.876;8.346;2023-05-13T08:31:56;9.90;99.90
9699;DHT22;10089;47.876;8.346;2023-05-13T08:34:22;9.90;99.90
9699;DHT22;10089;47.876;8.346;2023-05-13T08:36:47;9.80;99.90
9699;DHT22;10089;47.876;8.346;2023-05-13T08:39:13;9.70;99.90
9699;DHT22;10089;47.876;8.346;2023-05-13T08:41:40;9.70;99.90
9699;DHT22;10089;47.876;8.346;2023-05-13T08:44:10;9.70;99.90
9699;DHT22;10089;47.876;8.346;2023-05-13T08:46:40;9.90;99.90
9699;DHT22;10089;47.876;8.346;2023-05-13T08:49:08;10.00;99.90
9699;DHT22;10089;47.876;8.346;2023-05-13T08:51:34;10.20;99.90
9699;DHT22;10089;47.876;8.346;2023-05-13T08:54:00;10.30;99.90
9699;DHT22;10089;47.876;8.346;2023-05-13T08:56:26;10.20;99.90
9699;DHT22;10089;47.876;8.346;2023-05-13T08:58:54;10.50;99.90
9699;DHT22;10089;47.876;8.346;2023-05-13T09:01:22;10.70;99.90
9699;DHT22;10089;47.876;8.346;2023-05-13T09:03:57;10.70;99.90
9699;DHT22;10089;47.876;8.346;2023-05-13T09:06:24;11.10;99.90
9699;DHT22;10089;47.876;8.346;2023-05-13T09:08:50;11.30;99.90
9699;DHT22;10089;47.876;8.346;2023-05-13T09:11:16;11.10;99.90
9699;DHT22;10089;47.876;8.346;2023-05-13T09:13:42;11.00;99.90
9699;DHT22;10089;47.876;8.346;2023-05-13T09:16:09;11.00;99.90
9699;DHT22;10089;47.876;8.346;2023-05-13T09:18:38;11.00;99.90
9699;DHT22;10089;47.876;8.346;2023-05-13T09:21:26;11.20;99.90
9699;DHT22;10089;47.876;8.346;2023-05-13T09:24:04;11.40;99.90
9699;DHT22;10089;47.876;8.346;2023-05-13T09:26:31;11.40;1.00
9699;DHT22;10089;47.876;8.346;2023-05-13T09:29:27;11.40;1.40
9699;DHT22;10089;47.876;8.346;2023-05-13T09:32:08;11.50;1.00
9699;DHT22;10089;47.876;8.346;2023-05-13T09:34:34;11.50;1.00
9699;DHT22;10089;47.876;8.346;2023-05-13T09:37:04;11.40;1.00
9699;DHT22;10089;47.876;8.346;2023-05-13T09:39:32;11.40;1.00
9699;DHT22;10089;47.876;8.346;2023-05-13T09:42:00;11.50;1.00
9699;DHT22;10089;47.876;8.346;2023-05-13T09:44:26;11.60;1.00
9699;DHT22;10089;47.876;8.346;2023-05-13T09:46:53;11.60;1.00
9699;DHT22;10089;47.876;8.346;2023-05-13T09:49:22;11.60;1.00
9699;DHT22;10089;47.876;8.346;2023-05-13T09:51:48;11.60;1.00
9699;DHT22;10089;47.876;8.346;2023-05-13T09:54:13;11.60;1.00
9699;DHT22;10089;47.876;8.346;2023-05-13T09:56:39;11.70;1.00
9699;DHT22;10089;47.876;8.346;2023-05-13T09:59:05;11.60;1.00
9699;DHT22;10089;47.876;8.346;2023-05-13T10:01:31;11.60;1.00
9699;DHT22;10089;47.876;8.346;2023-05-13T10:03:58;11.60;1.00
9699;DHT22;10089;47.876;8.346;2023-05-13T10:06:29;11.70;99.90
9699;DHT22;10089;47.876;8.346;2023-05-13T10:08:57;11.60;1.00
9699;DHT22;10089;47.876;8.346;2023-05-13T10:11:24;11.60;1.00
9699;DHT22;10089;47.876;8.346;2023-05-13T10:13:58;11.60;1.00
9699;DHT22;10089;47.876;8.346;2023-05-13T10:16:24;11.60;1.00
9699;DHT22;10089;47.876;8.346;2023-05-13T10:18:52;11.90;1.00
9699;DHT22;10089;47.876;8.346;2023-05-13T10:21:20;12.00;1.00
9699;DHT22;10089;47.876;8.346;2023-05-13T10:23:48;12.00;1.00
9699;DHT22;10089;47.876;8.346;2023-05-13T10:26:16;12.10;99.90
9699;DHT22;10089;47.876;8.346;2023-05-13T10:28:44;12.20;99.90
9699;DHT22;10089;47.876;8.346;2023-05-13T10:31:10;12.40;99.90
9699;DHT22;10089;47.876;8.346;2023-05-13T10:33:36;12.60;99.90
9699;DHT22;10089;47.876;8.346;2023-05-13T10:36:40;13.00;1.00
9699;DHT22;10089;47.876;8.346;2023-05-13T10:39:26;13.50;3.30
9699;DHT22;10089;47.876;8.346;2023-05-13T10:44:57;13.50;99.90
9699;DHT22;10089;47.876;8.346;2023-05-13T10:47:22;13.60;1.00
9699;DHT22;10089;47.876;8.346;2023-05-13T10:49:52;13.60;1.00
9699;DHT22;10089;47.876;8.346;2023-05-13T10:52:18;13.30;99.90
9699;DHT22;10089;47.876;8.346;2023-05-13T10:55:13;13.20;1.00
9699;DHT22;10089;47.876;8.346;2023-05-13T10:57:39;12.90;1.00
9699;DHT22;10089;47.876;8.346;2023-05-13T11:02:38;12.50;1.00
9699;DHT22;10089;47.876;8.346;2023-05-13T11:08:45;12.30;99.90
9699;DHT22;10089;47.876;8.346;2023-05-13T11:14:43;12.50;99.90
9699;DHT22;10089;47.876;8.346;2023-05-13T11:17:10;12.40;99.90
9699;DHT22;10089;47.876;8.346;2023-05-13T11:19:38;12.60;1.00
9699;DHT22;10089;47.876;8.346;2023-05-13T11:22:13;12.70;99.90
9699;DHT22;10089;47.876;8.346;2023-05-13T11:24:40;13.10;99.90
9699;DHT22;10089;47.876;8.346;2023-05-13T11:27:43;13.40;1.00
9699;DHT22;10089;47.876;8.346;2023-05-13T11:30:22;13.60;1.00
9699;DHT22;10089;47.876;8.346;2023-05-13T11:32:55;13.10;1.00
9699;DHT22;10089;47.876;8.346;2023-05-13T11:35:26;13.40;97.80
9699;DHT22;10089;47.876;8.346;2023-05-13T11:37:56;13.90;1.00
9699;DHT22;10089;47.876;8.346;2023-05-13T11:40:30;14.10;1.00
9699;DHT22;10089;47.876;8.346;2023-05-13T11:42:57;13.90;99.90
9699;DHT22;10089;47.876;8.346;2023-05-13T11:45:24;13.80;99.90
9699;DHT22;10089;47.876;8.346;2023-05-13T11:47:51;13.60;99.90
9699;DHT22;10089;47.876;8.346;2023-05-13T11:50:26;13.30;1.00
9699;DHT22;10089;47.876;8.346;2023-05-13T11:52:55;13.20;1.00
9699;DHT22;10089;47.876;8.346;2023-05-13T11:55:33;13.20;1.00
9699;DHT22;10089;47.876;8.346;2023-05-13T11:58:02;13.00;1.00
9699;DHT22;10089;47.876;8.346;2023-05-13T12:00:33;12.90;1.00
9699;DHT22;10089;47.876;8.346;2023-05-13T12:03:00;12.70;1.00
9699;DHT22;10089;47.876;8.346;2023-05-13T12:05:26;12.70;1.00
9699;DHT22;10089;47.876;8.346;2023-05-13T12:07:55;12.50;99.90
9699;DHT22;10089;47.876;8.346;2023-05-13T12:10:22;12.80;63.10
9699;DHT22;10089;47.876;8.346;2023-05-13T12:12:49;12.60;99.90
9699;DHT22;10089;47.876;8.346;2023-05-13T12:15:16;12.50;99.90
9699;DHT22;10089;47.876;8.346;2023-05-13T12:17:43;12.60;99.90
9699;DHT22;10089;47.876;8.346;2023-05-13T12:28:15;12.70;99.90
9699;DHT22;10089;47.876;8.346;2023-05-13T12:30:47;12.60;1.00
9699;DHT22;10089;47.876;8.346;2023-05-13T12:33:15;12.60;99.90
9699;DHT22;10089;47.876;8.346;2023-05-13T12:38:38;12.40;1.00
9699;DHT22;10089;47.876;8.346;2023-05-13T12:41:11;12.30;99.90
9699;DHT22;10089;47.876;8.346;2023-05-13T12:43:40;12.30;1.00
9699;DHT22;10089;47.876;8.346;2023-05-13T12:46:05;12.50;1.00
9699;DHT22;10089;47.876;8.346;2023-05-13T12:48:34;12.40;99.90
9699;DHT22;10089;47.876;8.346;2023-05-13T12:51:00;12.50;1.00
9699;DHT22;10089;47.876;8.346;2023-05-13T12:53:25;12.30;1.00
9699;DHT22;10089;47.876;8.346;2023-05-13T12:55:51;12.20;1.00
9699;DHT22;10089;47.876;8.346;2023-05-13T12:58:17;12.20;1.00
9699;DHT22;10089;47.876;8.346;2023-05-13T13:00:43;12.20;1.00
9699;DHT22;10089;47.876;8.346;2023-05-13T13:03:08;12.30;1.00
9699;DHT22;10089;47.876;8.346;2023-05-13T13:05:34;12.20;1.00
9699;DHT22;10089;47.876;8.346;2023-05-13T13:08:00;12.00;1.00
9699;DHT22;10089;47.876;8.346;2023-05-13T13:10:27;11.90;1.00
9699;DHT22;10089;47.876;8.346;2023-05-13T13:12:53;12.20;1.00
9699;DHT22;10089;47.876;8.346;2023-05-13T13:15:18;12.20;1.00
9699;DHT22;10089;47.876;8.346;2023-05-13T13:17:44;12.00;1.00
9699;DHT22;10089;47.876;8.346;2023-05-13T13:20:10;11.80;1.00
9699;DHT22;10089;47.876;8.346;2023-05-13T13:22:36;12.00;1.00
9699;DHT22;10089;47.876;8.346;2023-05-13T13:25:06;12.00;1.00
9699;DHT22;10089;47.876;8.346;2023-05-13T13:27:34;11.90;1.00
9699;DHT22;10089;47.876;8.346;2023-05-13T13:30:00;12.00;1.00
9699;DHT22;10089;47.876;8.346;2023-05-13T13:32:26;11.80;1.00
9699;DHT22;10089;47.876;8.346;2023-05-13T13:34:52;11.70;1.00
9699;DHT22;10089;47.876;8.346;2023-05-13T13:37:17;11.80;1.00
9699;DHT22;10089;47.876;8.346;2023-05-13T13:39:43;11.80;1.00
9699;DHT22;10089;47.876;8.346;2023-05-13T13:42:09;12.00;1.00
9699;DHT22;10089;47.876;8.346;2023-05-13T13:44:35;12.00;1.00
9699;DHT22;10089;47.876;8.346;2023-05-13T13:47:02;11.90;1.00
9699;DHT22;10089;47.876;8.346;2023-05-13T13:49:28;11.80;1.00
9699;DHT22;10089;47.876;8.346;2023-05-13T13:51:54;11.80;1.00
9699;DHT22;10089;47.876;8.346;2023-05-13T13:54:20;12.10;1.00
9699;DHT22;10089;47.876;8.346;2023-05-13T13:56:47;12.10;1.00
9699;DHT22;10089;47.876;8.346;2023-05-13T13:59:13;11.90;1.00
9699;DHT22;10089;47.876;8.346;2023-05-13T14:01:38;12.00;1.00
9699;DHT22;10089;47.876;8.346;2023-05-13T14:04:17;11.80;1.00
9699;DHT22;10089;47.876;8.346;2023-05-13T14:06:49;11.80;1.00
9699;DHT22;10089;47.876;8.346;2023-05-13T14:09:15;11.70;1.00
9699;DHT22;10089;47.876;8.346;2023-05-13T14:11:41;11.60;1.00
9699;DHT22;10089;47.876;8.346;2023-05-13T14:14:07;11.60;1.00
9699;DHT22;10089;47.876;8.346;2023-05-13T14:16:33;11.60;1.00
9699;DHT22;10089;47.876;8.346;2023-05-13T14:18:59;11.60;1.00
9699;DHT22;10089;47.876;8.346;2023-05-13T14:21:39;11.40;1.00
9699;DHT22;10089;47.876;8.346;2023-05-13T14:24:04;11.20;1.00
9699;DHT22;10089;47.876;8.346;2023-05-13T14:26:32;11.20;1.00
9699;DHT22;10089;47.876;8.346;2023-05-13T14:28:58;11.20;1.00
9699;DHT22;10089;47.876;8.346;2023-05-13T14:31:24;11.30;1.00
9699;DHT22;10089;47.876;8.346;2023-05-13T14:33:49;11.20;1.00
9699;DHT22;10089;47.876;8.346;2023-05-13T14:36:15;11.20;19.70
9699;DHT22;10089;47.876;8.346;2023-05-13T14:38:44;11.30;1.00
9699;DHT22;10089;47.876;8.346;2023-05-13T14:41:09;11.40;12.10
9699;DHT22;10089;47.876;8.346;2023-05-13T14:43:35;11.40;1.00
9699;DHT22;10089;47.876;8.346;2023-05-13T14:46:01;11.20;1.00
9699;DHT22;10089;47.876;8.346;2023-05-13T14:48:29;11.30;58.30
9699;DHT22;10089;47.876;8.346;2023-05-13T14:50:54;11.40;96.50
9699;DHT22;10089;47.876;8.346;2023-05-13T14:53:20;11.40;99.90
9699;DHT22;10089;47.876;8.346;2023-05-13T14:55:46;11.30;1.00
9699;DHT22;10089;47.876;8.346;2023-05-13T14:58:12;11.20;40.00
9699;DHT22;10089;47.876;8.346;2023-05-13T15:00:38;11.10;91.80
9699;DHT22;10089;47.876;8.346;2023-05-13T15:03:04;11.00;99.90
9699;DHT22;10089;47.876;8.346;2023-05-13T15:05:30;10.90;99.90
9699;DHT22;10089;47.876;8.346;2023-05-13T15:07:57;11.00;99.90
9699;DHT22;10089;47.876;8.346;2023-05-13T15:10:23;10.80;99.90
9699;DHT22;10089;47.876;8.346;2023-05-13T15:12:48;10.60;99.90
9699;DHT22;10089;47.876;8.346;2023-05-13T15:15:14;10.40;99.90
9699;DHT22;10089;47.876;8.346;2023-05-13T15:17:40;10.50;99.90
9699;DHT22;10089;47.876;8.346;2023-05-13T15:20:06;10.50;99.90
9699;DHT22;10089;47.876;8.346;2023-05-13T15:22:32;10.40;99.90
9699;DHT22;10089;47.876;8.346;2023-05-13T15:24:57;10.40;99.90
9699;DHT22;10089;47.876;8.346;2023-05-13T15:27:25;10.40;99.90
9699;DHT22;10089;47.876;8.346;2023-05-13T15:29:52;10.40;99.90
9699;DHT22;10089;47.876;8.346;2023-05-13T15:32:19;10.20;99.90
9699;DHT22;10089;47.876;8.346;2023-05-13T15:34:44;10.30;99.90
9699;DHT22;10089;47.876;8.346;2023-05-13T15:37:16;10.20;99.90
9699;DHT22;10089;47.876;8.346;2023-05-13T15:39:42;10.40;99.90
9699;DHT22;10089;47.876;8.346;2023-05-13T15:42:08;10.50;99.90
9699;DHT22;10089;47.876;8.346;2023-05-13T15:44:34;10.60;99.90
9699;DHT22;10089;47.876;8.346;2023-05-13T15:47:00;10.60;99.90
9699;DHT22;10089;47.876;8.346;2023-05-13T15:49:28;10.50;99.90
9699;DHT22;10089;47.876;8.346;2023-05-13T15:51:54;10.60;99.90
9699;DHT22;10089;47.876;8.346;2023-05-13T15:54:20;10.50;99.90
9699;DHT22;10089;47.876;8.346;2023-05-13T15:56:46;10.50;99.90
9699;DHT22;10089;47.876;8.346;2023-05-13T15:59:22;10.60;99.90
9699;DHT22;10089;47.876;8.346;2023-05-13T16:01:48;10.30;99.90
9699;DHT22;10089;47.876;8.346;2023-05-13T16:04:13;10.40;99.90
9699;DHT22;10089;47.876;8.346;2023-05-13T16:06:39;10.50;99.90
9699;DHT22;10089;47.876;8.346;2023-05-13T16:09:05;10.60;99.90
9699;DHT22;10089;47.876;8.346;2023-05-13T16:11:31;10.70;99.90
9699;DHT22;10089;47.876;8.346;2023-05-13T16:13:57;10.60;99.90
9699;DHT22;10089;47.876;8.346;2023-05-13T16:16:22;10.40;99.90
9699;DHT22;10089;47.876;8.346;2023-05-13T16:18:48;10.40;99.90
9699;DHT22;10089;47.876;8.346;2023-05-13T16:21:14;10.40;99.90
9699;DHT22;10089;47.876;8.346;2023-05-13T16:23:40;10.40;99.90
9699;DHT22;10089;47.876;8.346;2023-05-13T16:26:05;10.30;99.90
9699;DHT22;10089;47.876;8.346;2023-05-13T16:28:32;10.20;99.90